createdAt,value
2022-09-26T00:00:37.959Z,98339.75
2022-09-26T00:03:04.495Z,98334.66
2022-09-26T00:05:33.004Z,98337.28
2022-09-26T00:07:59.518Z,98333.06
2022-09-26T00:10:26.083Z,98338.25
2022-09-26T00:12:53.339Z,98337.38
2022-09-26T00:15:19.956Z,98333.09
2022-09-26T00:17:46.486Z,98338.28
2022-09-26T00:20:13.256Z,98334.81
2022-09-26T00:22:39.765Z,98340.03
2022-09-26T00:25:06.577Z,98337.41
2022-09-26T00:27:33.282Z,98336.63
2022-09-26T00:29:59.821Z,98346.13
2022-09-26T00:32:26.436Z,98341.00
2022-09-26T00:34:53.730Z,98351.41
2022-09-26T00:37:20.293Z,98350.53
2022-09-26T00:39:46.841Z,98349.72
2022-09-26T00:42:14.674Z,98350.66
2022-09-26T00:44:41.337Z,98349.81
2022-09-26T00:47:14.987Z,98355.81
2022-09-26T00:49:43.971Z,98353.22
2022-09-26T00:52:12.905Z,98355.81
2022-09-26T00:54:41.685Z,98364.41
2022-09-26T00:57:10.930Z,98361.00
2022-09-26T00:59:39.313Z,98367.84
2022-09-26T01:02:06.046Z,98360.94
2022-09-26T01:04:34.830Z,98356.59
2022-09-26T01:07:06.172Z,98361.75
2022-09-26T01:09:33.164Z,98362.63
2022-09-26T01:12:00.591Z,98358.41
2022-09-26T01:14:27.562Z,98358.47
2022-09-26T01:16:54.788Z,98361.06
2022-09-26T01:19:44.375Z,98366.28
2022-09-26T01:22:10.898Z,98356.81
2022-09-26T01:24:37.434Z,98358.53
2022-09-26T01:27:12.941Z,98364.59
2022-09-26T01:29:58.100Z,98356.06
2022-09-26T01:32:50.977Z,98358.63
2022-09-26T01:35:18.209Z,98364.63
2022-09-26T01:37:59.524Z,98357.81
2022-09-26T01:40:40.476Z,98356.09
2022-09-26T01:43:23.236Z,98366.47
2022-09-26T01:45:52.911Z,98367.31
2022-09-26T01:48:24.308Z,98365.59
2022-09-26T01:50:57.690Z,98371.63
2022-09-26T01:53:30.138Z,98366.47
2022-09-26T01:56:00.025Z,98369.00
2022-09-26T01:58:33.644Z,98365.56
2022-09-26T02:01:04.855Z,98373.31
2022-09-26T02:03:35.399Z,98377.63
2022-09-26T02:06:07.939Z,98387.03
2022-09-26T02:08:39.085Z,98387.09
2022-09-26T02:11:18.587Z,98385.38
2022-09-26T02:13:48.207Z,98389.69
2022-09-26T02:16:21.510Z,98391.41
2022-09-26T02:18:51.016Z,98394.03
2022-09-26T02:21:23.367Z,98399.13
2022-09-26T02:23:51.056Z,98404.28
2022-09-26T02:26:17.801Z,98396.59
2022-09-26T02:28:44.641Z,98397.47
2022-09-26T02:31:12.849Z,98396.63
2022-09-26T02:33:39.505Z,98400.94
2022-09-26T02:36:10.238Z,98404.34
2022-09-26T02:38:37.756Z,98407.75
2022-09-26T02:41:22.776Z,98405.22
2022-09-26T02:43:56.821Z,98412.97
2022-09-26T02:46:29.409Z,98411.28
2022-09-26T02:48:55.910Z,98413.84
2022-09-26T02:51:37.786Z,98410.31
2022-09-26T02:54:07.181Z,98403.41
2022-09-26T02:56:33.685Z,98406.00
2022-09-26T02:59:17.139Z,98408.63
2022-09-26T03:01:50.489Z,98406.88
2022-09-26T03:04:35.825Z,98409.50
2022-09-26T03:07:06.649Z,98410.38
2022-09-26T03:09:34.214Z,98404.38
2022-09-26T03:12:02.482Z,98405.19
2022-09-26T03:14:31.473Z,98404.34
2022-09-26T03:16:58.918Z,98413.66
2022-09-26T03:19:32.160Z,98416.31
2022-09-26T03:21:59.982Z,98413.75
2022-09-26T03:24:26.891Z,98410.34
2022-09-26T03:26:55.332Z,98412.97
2022-09-26T03:29:21.968Z,98412.94
2022-09-26T03:31:50.398Z,98407.84
2022-09-26T03:34:17.541Z,98402.66
2022-09-26T03:36:45.581Z,98400.13
2022-09-26T03:39:12.443Z,98412.09
2022-09-26T03:41:39.078Z,98412.97
2022-09-26T03:44:05.614Z,98420.66
2022-09-26T03:46:35.057Z,98416.44
2022-09-26T03:49:05.745Z,98419.84
2022-09-26T03:51:33.076Z,98425.81
2022-09-26T03:53:59.631Z,98430.03
2022-09-26T03:56:27.025Z,98430.03
2022-09-26T03:58:53.659Z,98436.13
2022-09-26T04:01:21.967Z,98427.56
2022-09-26T04:03:50.789Z,98426.72
2022-09-26T04:06:20.203Z,98430.97
2022-09-26T04:08:48.498Z,98429.22
2022-09-26T04:11:16.198Z,98422.31
2022-09-26T04:13:53.927Z,98423.97
2022-09-26T04:16:22.782Z,98431.63
2022-09-26T04:18:49.683Z,98429.94
2022-09-26T04:21:17.005Z,98430.00
2022-09-26T04:23:44.490Z,98430.00
2022-09-26T04:26:12.530Z,98436.00
2022-09-26T04:28:39.989Z,98435.16
2022-09-26T04:31:07.086Z,98441.25
2022-09-26T04:33:34.140Z,98441.19
2022-09-26T04:36:01.385Z,98444.59
2022-09-26T04:38:34.535Z,98437.66
2022-09-26T04:41:11.356Z,98447.03
2022-09-26T04:43:38.143Z,98441.03
2022-09-26T04:46:09.094Z,98443.59
2022-09-26T04:48:36.197Z,98448.69
2022-09-26T04:51:07.211Z,98444.41
2022-09-26T04:53:34.331Z,98446.97
2022-09-26T04:56:01.219Z,98448.69
2022-09-26T04:58:28.331Z,98453.00
2022-09-26T05:00:54.976Z,98459.06
2022-09-26T05:03:21.613Z,98453.91
2022-09-26T05:05:48.184Z,98460.00
2022-09-26T05:08:14.839Z,98453.97
2022-09-26T05:10:42.096Z,98458.31
2022-09-26T05:13:09.651Z,98461.78
2022-09-26T05:15:39.771Z,98457.53
2022-09-26T05:18:11.506Z,98462.75
2022-09-26T05:20:38.656Z,98466.22
2022-09-26T05:23:07.180Z,98467.91
2022-09-26T05:25:56.720Z,98467.97
2022-09-26T05:28:24.141Z,98467.97
2022-09-26T05:30:51.869Z,98467.97
2022-09-26T05:33:21.814Z,98473.13
2022-09-26T05:35:54.924Z,98469.66
2022-09-26T05:38:21.497Z,98479.09
2022-09-26T05:40:57.115Z,98477.34
2022-09-26T05:43:24.758Z,98479.94
2022-09-26T05:45:51.384Z,98485.06
2022-09-26T05:48:18.033Z,98474.69
2022-09-26T05:50:44.817Z,98472.94
2022-09-26T05:53:11.436Z,98480.66
2022-09-26T05:55:38.130Z,98484.88
2022-09-26T05:58:06.116Z,98490.94
2022-09-26T06:00:34.010Z,98489.22
2022-09-26T06:03:03.872Z,98491.78
2022-09-26T06:05:32.375Z,98490.03
2022-09-26T06:07:59.696Z,98494.34
2022-09-26T06:10:26.269Z,98504.59
2022-09-26T06:12:52.984Z,98488.28
2022-09-26T06:15:19.694Z,98502.03
2022-09-26T06:17:48.184Z,98501.25
2022-09-26T06:20:14.858Z,98507.28
2022-09-26T06:22:42.365Z,98509.06
2022-09-26T06:25:09.669Z,98509.13
2022-09-26T06:27:38.800Z,98520.34
2022-09-26T06:30:07.002Z,98511.81
2022-09-26T06:32:34.870Z,98511.78
2022-09-26T06:35:01.815Z,98514.38
2022-09-26T06:37:29.968Z,98510.91
2022-09-26T06:39:59.439Z,98516.13
2022-09-26T06:42:26.353Z,98509.22
2022-09-26T06:44:53.375Z,98516.03
2022-09-26T06:47:19.949Z,98512.53
2022-09-26T06:49:46.614Z,98522.81
2022-09-26T06:52:14.116Z,98521.94
2022-09-26T06:54:41.198Z,98517.66
2022-09-26T06:57:11.669Z,98516.00
2022-09-26T06:59:40.840Z,98522.00
2022-09-26T07:02:08.771Z,98518.53
2022-09-26T07:04:35.981Z,98527.97
2022-09-26T07:07:02.610Z,98527.91
2022-09-26T07:09:29.195Z,98534.78
2022-09-26T07:12:14.086Z,98532.97
2022-09-26T07:14:42.159Z,98543.22
2022-09-26T07:17:13.773Z,98538.09
2022-09-26T07:19:40.328Z,98538.88
2022-09-26T07:22:07.433Z,98540.56
2022-09-26T07:24:35.047Z,98548.19
2022-09-26T07:27:02.914Z,98551.59
2022-09-26T07:29:29.612Z,98546.44
2022-09-26T07:31:56.593Z,98555.81
2022-09-26T07:34:25.182Z,98549.78
2022-09-26T07:36:52.241Z,98560.06
2022-09-26T07:39:18.800Z,98561.78
2022-09-26T07:41:46.173Z,98560.00
2022-09-26T07:47:18.689Z,98565.13
2022-09-26T07:50:03.845Z,98571.06
2022-09-26T07:52:30.880Z,98573.63
2022-09-26T07:54:57.426Z,98574.47
2022-09-26T07:57:24.062Z,98573.50
2022-09-26T07:59:50.715Z,98572.56
2022-09-26T08:02:36.071Z,98571.72
2022-09-26T08:05:05.773Z,98575.94
2022-09-26T08:07:33.659Z,98586.22
2022-09-26T08:10:03.059Z,98580.94
2022-09-26T08:12:34.549Z,98578.25
2022-09-26T08:15:01.142Z,98583.38
2022-09-26T08:17:33.803Z,98586.00
2022-09-26T08:20:01.279Z,98592.94
2022-09-26T08:22:28.442Z,98594.72
2022-09-26T08:24:55.433Z,98594.72
2022-09-26T08:27:23.188Z,98598.34
2022-09-26T08:29:51.023Z,98594.97
2022-09-26T08:32:18.765Z,98596.75
2022-09-26T08:34:45.876Z,98594.13
2022-09-26T08:37:12.714Z,98602.75
2022-09-26T08:39:39.432Z,98602.81
2022-09-26T08:42:09.122Z,98605.38
2022-09-26T08:44:54.739Z,98607.06
2022-09-26T08:47:33.655Z,98607.88
2022-09-26T08:50:18.997Z,98611.28
2022-09-26T08:53:02.333Z,98625.03
2022-09-26T08:55:35.145Z,98614.72
2022-09-26T08:58:03.277Z,98625.13
2022-09-26T09:00:36.420Z,98621.69
2022-09-26T09:03:07.202Z,98622.44
2022-09-26T09:05:35.718Z,98618.97
2022-09-26T09:08:07.999Z,98627.44
2022-09-26T09:10:41.297Z,98631.78
2022-09-26T09:13:17.672Z,98631.69
2022-09-26T09:15:59.633Z,98629.06
2022-09-26T09:18:29.248Z,98626.31
2022-09-26T09:21:13.813Z,98636.56
2022-09-26T09:23:55.617Z,98644.22
2022-09-26T09:29:29.811Z,98649.44
2022-09-26T09:31:57.274Z,98655.50
2022-09-26T09:34:31.368Z,98647.81
2022-09-26T09:36:59.742Z,98659.94
2022-09-26T09:39:45.744Z,98653.00
2022-09-26T09:42:21.394Z,98652.88
2022-09-26T09:44:55.564Z,98658.81
2022-09-26T09:47:22.233Z,98662.25
2022-09-26T09:49:49.254Z,98658.81
2022-09-26T09:52:39.164Z,98653.41
2022-09-26T09:55:18.248Z,98658.47
2022-09-26T09:57:53.591Z,98653.81
2022-09-26T10:00:22.316Z,98660.41
2022-09-26T10:03:01.304Z,98657.59
2022-09-26T10:05:31.231Z,98661.53
2022-09-26T10:07:58.456Z,98660.25
2022-09-26T10:10:27.949Z,98658.22
2022-09-26T10:12:56.210Z,98659.38
2022-09-26T10:15:27.410Z,98655.06
2022-09-26T10:18:24.255Z,98662.16
2022-09-26T10:20:56.985Z,98663.66
2022-09-26T10:23:26.976Z,98660.34
2022-09-26T10:25:59.460Z,98672.66
2022-09-26T10:28:30.817Z,98664.31
2022-09-26T10:31:02.056Z,98665.22
2022-09-26T10:33:30.967Z,98668.72
2022-09-26T10:36:04.911Z,98668.03
2022-09-26T10:38:34.536Z,98680.25
2022-09-26T10:41:01.879Z,98670.72
2022-09-26T10:43:31.429Z,98673.31
2022-09-26T10:46:15.128Z,98680.03
2022-09-26T10:48:56.061Z,98676.31
2022-09-26T10:51:37.962Z,98681.25
2022-09-26T10:54:11.442Z,98683.06
2022-09-26T10:56:41.685Z,98684.88
2022-09-26T10:59:10.212Z,98686.88
2022-09-26T11:01:43.059Z,98677.50
2022-09-26T11:04:40.227Z,98692.38
2022-09-26T11:07:08.649Z,98691.72
2022-09-26T11:09:36.074Z,98697.94
2022-09-26T11:12:23.886Z,98690.25
2022-09-26T11:14:53.918Z,98695.50
2022-09-26T11:17:20.505Z,98696.41
2022-09-26T11:19:57.530Z,98696.44
2022-09-26T11:22:33.848Z,98708.53
2022-09-26T11:25:03.632Z,98706.97
2022-09-26T11:27:44.027Z,98713.94
2022-09-26T11:30:14.835Z,98708.06
2022-09-26T11:32:47.004Z,98708.91
2022-09-26T11:35:15.016Z,98712.28
2022-09-26T11:38:17.052Z,98713.91
2022-09-26T11:40:46.330Z,98712.28
2022-09-26T11:43:27.513Z,98726.06
2022-09-26T11:46:04.540Z,98727.81
2022-09-26T11:48:37.441Z,98731.28
2022-09-26T11:51:13.244Z,98724.41
2022-09-26T11:53:40.615Z,98731.28
2022-09-26T11:56:07.295Z,98728.72
2022-09-26T11:58:45.012Z,98740.00
2022-09-26T12:01:30.434Z,98739.06
2022-09-26T12:03:57.153Z,98743.28
2022-09-26T12:06:24.644Z,98745.03
2022-09-26T12:09:00.554Z,98742.47
2022-09-26T12:11:42.420Z,98744.16
2022-09-26T12:14:12.133Z,98742.38
2022-09-26T12:16:47.385Z,98755.38
2022-09-26T12:19:32.462Z,98755.41
2022-09-26T12:22:17.352Z,98753.66
2022-09-26T12:24:44.003Z,98747.56
2022-09-26T12:27:30.806Z,98740.50
2022-09-26T12:30:02.363Z,98736.06
2022-09-26T12:32:49.197Z,98738.53
2022-09-26T12:35:15.888Z,98741.03
2022-09-26T12:37:42.418Z,98733.19
2022-09-26T12:40:17.843Z,98743.28
2022-09-26T12:42:45.625Z,98755.31
2022-09-26T12:45:31.066Z,98745.78
2022-09-26T12:48:18.190Z,98748.31
2022-09-26T12:51:06.595Z,98739.41
2022-09-26T12:53:51.309Z,98742.47
2022-09-26T12:56:40.911Z,98748.50
2022-09-26T12:59:38.712Z,98743.44
2022-09-26T13:02:08.404Z,98747.13
2022-09-26T13:04:53.010Z,98742.84
2022-09-26T13:07:38.681Z,98751.72
2022-09-26T13:10:08.421Z,98747.63
2022-09-26T13:12:50.057Z,98750.28
2022-09-26T13:15:16.561Z,98744.47
2022-09-26T13:17:46.141Z,98754.06
2022-09-26T13:20:14.674Z,98765.16
2022-09-26T13:22:48.359Z,98762.72
2022-09-26T13:25:19.023Z,98756.66
2022-09-26T13:27:48.594Z,98769.66
2022-09-26T13:30:26.223Z,98768.00
2022-09-26T13:33:00.246Z,98772.41
2022-09-26T13:35:28.421Z,98781.97
2022-09-26T13:38:08.385Z,98779.38
2022-09-26T13:40:54.042Z,98782.91
2022-09-26T13:43:36.473Z,98776.94
2022-09-26T13:46:16.046Z,98777.81
2022-09-26T13:49:07.562Z,98784.66
2022-09-26T13:51:40.158Z,98769.38
2022-09-26T13:54:27.299Z,98774.50
2022-09-26T13:56:54.488Z,98776.75
2022-09-26T13:59:23.104Z,98785.56
2022-09-26T14:02:08.321Z,98778.84
2022-09-26T14:04:36.015Z,98777.59
2022-09-26T14:07:02.536Z,98779.63
2022-09-26T14:09:42.418Z,98778.22
2022-09-26T14:12:31.136Z,98792.09
2022-09-26T14:15:27.626Z,98790.50
2022-09-26T14:18:26.578Z,98784.59
2022-09-26T14:20:57.614Z,98804.63
2022-09-26T14:23:34.880Z,98796.19
2022-09-26T14:26:05.680Z,98797.19
2022-09-26T14:28:33.401Z,98792.94
2022-09-26T14:31:11.382Z,98795.56
2022-09-26T14:33:38.651Z,98804.16
2022-09-26T14:36:23.005Z,98800.75
2022-09-26T14:38:50.480Z,98803.41
2022-09-26T14:41:18.863Z,98799.94
2022-09-26T14:43:46.282Z,98803.44
2022-09-26T14:46:18.570Z,98805.19
2022-09-26T14:48:45.997Z,98805.22
2022-09-26T14:51:12.621Z,98806.13
2022-09-26T14:53:39.268Z,98807.06
2022-09-26T14:56:08.615Z,98802.75
2022-09-26T14:58:37.969Z,98808.84
2022-09-26T15:01:05.451Z,98809.75
2022-09-26T15:03:35.396Z,98814.09
2022-09-26T15:06:03.252Z,98809.78
2022-09-26T15:08:32.033Z,98808.13
2022-09-26T15:11:00.453Z,98804.72
2022-09-26T15:13:34.375Z,98814.19
2022-09-26T15:16:09.865Z,98819.31
2022-09-26T15:18:41.023Z,98824.44
2022-09-26T15:21:07.568Z,98829.66
2022-09-26T15:23:44.427Z,98838.31
2022-09-26T15:26:11.257Z,98838.31
2022-09-26T15:28:38.655Z,98831.56
2022-09-26T15:31:18.273Z,98840.16
2022-09-26T15:33:45.102Z,98844.50
2022-09-26T15:36:16.588Z,98847.09
2022-09-26T15:38:47.179Z,98852.34
2022-09-26T15:41:37.972Z,98845.44
2022-09-26T15:44:16.912Z,98850.63
2022-09-26T15:46:43.552Z,98849.81
2022-09-26T15:49:14.538Z,98854.13
2022-09-26T15:51:42.662Z,98852.41
2022-09-26T15:54:22.828Z,98860.16
2022-09-26T15:56:50.187Z,98867.91
2022-09-26T15:59:28.963Z,98866.22
2022-09-26T16:01:55.962Z,98870.53
2022-09-26T16:04:27.295Z,98865.38
2022-09-26T16:07:03.282Z,98869.66
2022-09-26T16:09:30.191Z,98866.25
2022-09-26T16:11:58.664Z,98871.41
2022-09-26T16:14:26.925Z,98870.56
2022-09-26T16:17:23.186Z,98865.38
2022-09-26T16:19:49.856Z,98875.72
2022-09-26T16:22:31.875Z,98867.97
2022-09-26T16:25:17.964Z,98869.72
2022-09-26T16:27:49.549Z,98874.94
2022-09-26T16:30:23.629Z,98864.56
2022-09-26T16:32:50.939Z,98866.31
2022-09-26T16:35:22.351Z,98866.31
2022-09-26T16:38:01.269Z,98872.34
2022-09-26T16:40:28.965Z,98863.72
2022-09-26T16:43:12.743Z,98870.63
2022-09-26T16:45:49.634Z,98870.63
2022-09-26T16:48:34.659Z,98871.47
2022-09-26T16:51:28.220Z,98867.16
2022-09-26T16:53:54.820Z,98871.44
2022-09-26T16:56:23.480Z,98867.19
2022-09-26T16:58:51.212Z,98864.56
2022-09-26T17:01:43.430Z,98864.59
2022-09-26T17:04:17.742Z,98866.31
2022-09-26T17:06:47.778Z,98874.94
2022-09-26T17:09:16.309Z,98873.19
2022-09-26T17:11:47.435Z,98874.94
2022-09-26T17:14:16.538Z,98874.94
2022-09-26T17:16:47.855Z,98876.66
2022-09-26T17:19:16.806Z,98881.78
2022-09-26T17:21:44.101Z,98876.63
2022-09-26T17:24:14.879Z,98880.94
2022-09-26T17:26:45.773Z,98886.94
2022-09-26T17:29:19.055Z,98880.09
2022-09-26T17:31:45.667Z,98885.19
2022-09-26T17:34:14.155Z,98890.34
2022-09-26T17:36:43.886Z,98891.19
2022-09-26T17:39:12.855Z,98891.19
2022-09-26T17:41:39.555Z,98886.88
2022-09-26T17:44:06.215Z,98891.19
2022-09-26T17:46:33.060Z,98902.38
2022-09-26T17:49:02.227Z,98900.66
2022-09-26T17:51:31.188Z,98904.09
2022-09-26T17:53:57.859Z,98904.09
2022-09-26T17:56:26.295Z,98907.50
2022-09-26T17:58:54.259Z,98904.88
2022-09-26T18:01:25.495Z,98906.59
2022-09-26T18:03:54.952Z,98916.06
2022-09-26T18:06:24.662Z,98904.88
2022-09-26T18:08:52.425Z,98907.44
2022-09-26T18:11:19.324Z,98910.88
2022-09-26T18:13:54.612Z,98909.19
2022-09-26T18:16:24.794Z,98912.63
2022-09-26T18:18:51.523Z,98921.22
2022-09-26T18:21:18.882Z,98919.53
2022-09-26T18:23:48.484Z,98917.78
2022-09-26T18:26:21.164Z,98918.66
2022-09-26T18:28:47.876Z,98914.34
2022-09-26T18:31:14.624Z,98916.09
2022-09-26T18:33:41.441Z,98918.69
2022-09-26T18:36:09.492Z,98919.56
2022-09-26T18:38:36.156Z,98916.16
2022-09-26T18:41:03.014Z,98912.69
2022-09-26T18:43:32.162Z,98917.00
2022-09-26T18:45:59.639Z,98907.56
2022-09-26T18:48:28.985Z,98912.72
2022-09-26T18:50:57.343Z,98912.75
2022-09-26T18:53:25.192Z,98915.31
2022-09-26T18:56:10.859Z,98922.22
2022-09-26T18:58:39.315Z,98917.91
2022-09-26T19:01:15.839Z,98917.94
2022-09-26T19:03:45.484Z,98914.50
2022-09-26T19:06:20.335Z,98923.97
2022-09-26T19:08:49.723Z,98908.50
2022-09-26T19:11:21.164Z,98911.97
2022-09-26T19:13:52.301Z,98906.84
2022-09-26T19:16:19.788Z,98910.31
2022-09-26T19:18:46.673Z,98914.59
2022-09-26T19:21:21.259Z,98915.50
2022-09-26T19:23:49.473Z,98921.50
2022-09-26T19:26:22.448Z,98916.34
2022-09-26T19:28:49.107Z,98911.19
2022-09-26T19:31:15.788Z,98915.50
2022-09-26T19:33:44.018Z,98912.91
2022-09-26T19:36:14.086Z,98918.06
2022-09-26T19:38:40.691Z,98921.50
2022-09-26T19:41:07.743Z,98924.97
2022-09-26T19:43:35.131Z,98918.91
2022-09-26T19:46:06.118Z,98923.22
2022-09-26T19:48:38.627Z,98921.53
2022-09-26T19:51:06.835Z,98923.28
2022-09-26T19:53:34.959Z,98926.69
2022-09-26T19:56:01.787Z,98934.44
2022-09-26T19:58:28.519Z,98933.56
2022-09-26T20:01:00.370Z,98930.97
2022-09-26T20:03:29.343Z,98938.72
2022-09-26T20:05:56.002Z,98944.72
2022-09-26T20:08:25.207Z,98941.28
2022-09-26T20:10:52.572Z,98942.16
2022-09-26T20:13:19.157Z,98944.75
2022-09-26T20:15:46.334Z,98942.16
2022-09-26T20:18:15.663Z,98945.63
2022-09-26T20:20:42.377Z,98957.72
2022-09-26T20:23:15.349Z,98945.69
2022-09-26T20:25:41.973Z,98947.47
2022-09-26T20:28:10.214Z,98947.47
2022-09-26T20:30:52.174Z,98949.16
2022-09-26T20:33:22.033Z,98947.41
2022-09-26T20:36:01.737Z,98950.84
2022-09-26T20:38:31.340Z,98951.69
2022-09-26T20:41:06.178Z,98949.97
2022-09-26T20:43:38.269Z,98957.72
2022-09-26T20:46:05.834Z,98962.88
2022-09-26T20:48:34.516Z,98957.72
2022-09-26T20:51:01.580Z,98956.00
2022-09-26T20:53:28.152Z,98958.59
2022-09-26T20:55:57.564Z,98961.13
2022-09-26T20:58:24.209Z,98957.72
2022-09-26T21:00:53.012Z,98966.31
2022-09-26T21:03:21.945Z,98969.75
2022-09-26T21:05:48.648Z,98968.03
2022-09-26T21:08:28.568Z,98962.88
2022-09-26T21:10:56.144Z,98962.00
2022-09-26T21:13:23.037Z,98964.59
2022-09-26T21:15:49.757Z,98971.50
2022-09-26T21:18:27.010Z,98968.88
2022-09-26T21:20:56.409Z,98971.50
2022-09-26T21:23:24.181Z,98968.03
2022-09-26T21:25:50.802Z,98968.03
2022-09-26T21:28:27.847Z,98971.50
2022-09-26T21:30:59.089Z,98965.50
2022-09-26T21:33:26.334Z,98974.06
2022-09-26T21:35:52.911Z,98969.78
2022-09-26T21:38:20.482Z,98974.09
2022-09-26T21:40:49.232Z,98980.94
2022-09-26T21:43:17.201Z,98975.78
2022-09-26T21:45:44.620Z,98974.94
2022-09-26T21:48:12.265Z,98980.09
2022-09-26T21:50:40.327Z,98980.09
2022-09-26T21:53:10.753Z,98984.41
2022-09-26T21:55:40.272Z,98985.25
2022-09-26T21:58:10.217Z,98981.81
2022-09-26T22:00:37.296Z,98980.09
2022-09-26T22:03:03.889Z,98984.38
2022-09-26T22:05:31.375Z,98985.25
2022-09-26T22:07:58.366Z,98980.09
2022-09-26T22:10:25.481Z,98984.41
2022-09-26T22:12:52.388Z,98992.97
2022-09-26T22:15:19.125Z,98986.94
2022-09-26T22:17:45.753Z,98983.53
2022-09-26T22:20:12.768Z,98988.66
2022-09-26T22:22:39.381Z,98986.09
2022-09-26T22:25:06.492Z,98989.56
2022-09-26T22:27:34.416Z,98993.81
2022-09-26T22:30:01.180Z,98993.84
2022-09-26T22:32:27.800Z,98998.13
2022-09-26T22:34:54.428Z,99002.41
2022-09-26T22:37:20.975Z,98995.56
2022-09-26T22:39:48.074Z,98993.84
2022-09-26T22:42:14.875Z,98997.25
2022-09-26T22:44:41.503Z,98993.84
2022-09-26T22:47:08.123Z,98996.41
2022-09-26T22:49:34.729Z,98997.28
2022-09-26T22:52:01.384Z,99001.56
2022-09-26T22:54:28.046Z,99000.69
2022-09-26T22:56:54.626Z,99007.50
2022-09-26T22:59:21.213Z,98997.19
2022-09-26T23:01:48.161Z,98995.50
2022-09-26T23:04:14.786Z,98986.97
2022-09-26T23:06:41.378Z,98986.97
2022-09-26T23:09:08.045Z,98987.00
2022-09-26T23:11:34.720Z,98981.81
2022-09-26T23:14:01.289Z,98980.13
2022-09-26T23:16:28.774Z,98985.25
2022-09-26T23:18:55.773Z,98981.81
2022-09-26T23:21:23.363Z,98990.34
2022-09-26T23:23:58.273Z,98980.09
2022-09-26T23:26:29.419Z,98981.81
2022-09-26T23:28:57.385Z,98978.38
2022-09-26T23:31:25.185Z,98976.69
2022-09-26T23:33:52.248Z,98976.66
2022-09-26T23:36:19.731Z,98975.81
2022-09-26T23:38:46.570Z,98974.94
2022-09-26T23:41:13.247Z,98977.50
2022-09-26T23:43:40.111Z,98983.56
2022-09-26T23:46:07.464Z,98977.50
2022-09-26T23:48:34.680Z,98968.94
2022-09-26T23:51:01.289Z,98968.94
2022-09-26T23:53:27.983Z,98980.09
2022-09-26T23:56:02.141Z,98978.38
2022-09-26T23:58:28.777Z,98981.81
